Time;durP1;ratioP1;P1;durP2;ratioP2;P2;SDS_P1;SDS_P2;PMS_P1;PMS_P2;Temp;Humidity;BMP_temperature;BMP_pressure;BME280_temperature;BME280_humidity;BME280_pressure;Samples;Min_cycle;Max_cycle;Signal;HPM_P1;HPM_P2
2021/08/04 00:01:21;;;;;;;2.65;1.70;;;18.00;70.50;;;;;;5043983;28;20028;-68
2021/08/04 00:04:05;;;;;;;2.83;1.63;;;18.00;70.40;;;;;;5043626;28;20055;-68
2021/08/04 00:06:49;;;;;;;2.03;1.48;;;18.00;70.50;;;;;;5044209;28;20063;-68
2021/08/04 00:09:34;;;;;;;2.90;1.70;;;18.00;70.70;;;;;;5044068;28;20063;-68
2021/08/04 00:12:18;;;;;;;2.90;1.67;;;17.90;70.90;;;;;;5043667;28;20083;-68
2021/08/04 00:15:03;;;;;;;2.63;1.70;;;17.90;70.90;;;;;;5043600;28;20061;-68
2021/08/04 00:17:48;;;;;;;4.20;1.80;;;17.90;71.10;;;;;;5043524;28;20299;-68
2021/08/04 00:20:32;;;;;;;2.13;1.50;;;17.80;71.20;;;;;;5043466;28;20348;-68
2021/08/04 00:23:16;;;;;;;2.45;1.70;;;17.80;71.50;;;;;;5043054;28;20140;-68
2021/08/04 00:26:01;;;;;;;2.72;1.70;;;17.80;71.80;;;;;;5043225;28;20071;-68
2021/08/04 00:28:45;;;;;;;2.78;1.80;;;17.70;72.10;;;;;;5043179;28;20025;-68
2021/08/04 00:31:29;;;;;;;5.28;1.70;;;17.80;72.30;;;;;;5043682;28;20236;-68
2021/08/04 00:34:13;;;;;;;2.58;1.65;;;17.80;72.30;;;;;;5043236;28;20100;-68
2021/08/04 00:36:57;;;;;;;3.92;1.60;;;17.80;72.30;;;;;;5043180;28;20067;-68
2021/08/04 00:39:42;;;;;;;3.47;1.80;;;17.80;72.30;;;;;;5043089;28;20029;-68
2021/08/04 00:42:26;;;;;;;3.42;1.90;;;17.70;72.40;;;;;;5043034;28;20367;-69
2021/08/04 00:45:11;;;;;;;4.93;1.90;;;17.60;72.40;;;;;;5046592;28;20036;-68
2021/08/04 00:47:56;;;;;;;3.17;1.80;;;17.60;72.70;;;;;;5046731;28;20040;-68
2021/08/04 00:50:39;;;;;;;2.70;1.80;;;17.60;73.00;;;;;;5046683;28;20036;-68
2021/08/04 00:53:25;;;;;;;4.00;1.88;;;17.60;73.10;;;;;;5046590;28;20080;-68
2021/08/04 00:56:10;;;;;;;6.03;1.98;;;17.60;72.80;;;;;;5046621;28;20045;-68
2021/08/04 00:58:54;;;;;;;2.85;2.00;;;17.60;73.00;;;;;;5046598;28;20048;-68
2021/08/04 01:01:55;;;;;;;3.78;1.63;;;17.50;73.30;;;;;;5046535;28;20033;-67
2021/08/04 01:04:45;;;;;;;3.97;1.90;;;17.40;73.50;;;;;;5047030;28;20033;-68
2021/08/04 01:07:35;;;;;;;2.80;1.80;;;17.40;73.50;;;;;;5045980;28;20028;-68
2021/08/04 01:10:31;;;;;;;4.78;2.03;;;17.40;73.60;;;;;;5032279;28;20052;-68
2021/08/04 01:13:25;;;;;;;2.38;1.70;;;17.40;73.30;;;;;;5032531;28;20040;-68
2021/08/04 01:16:13;;;;;;;3.72;1.80;;;17.40;73.60;;;;;;5045460;28;20120;-68
2021/08/04 01:19:09;;;;;;;2.95;1.80;;;17.40;73.50;;;;;;5045329;28;20109;-68
2021/08/04 01:22:35;;;;;;;2.70;1.80;;;17.40;73.40;;;;;;5046659;28;20343;-68
2021/08/04 01:25:20;;;;;;;4.03;1.65;;;17.30;73.90;;;;;;5005049;28;20074;-68
2021/08/04 01:28:22;;;;;;;5.05;2.00;;;17.30;74.00;;;;;;5045224;28;20052;-68
2021/08/04 01:31:08;;;;;;;2.72;1.90;;;17.30;73.90;;;;;;5031407;28;20075;-68
2021/08/04 01:33:53;;;;;;;3.65;1.90;;;17.30;73.80;;;;;;5045417;28;20096;-68
2021/08/04 01:36:37;;;;;;;3.42;1.90;;;17.30;73.90;;;;;;5045406;28;20124;-68
2021/08/04 01:39:22;;;;;;;4.18;1.88;;;17.30;73.80;;;;;;5044832;28;20098;-68
2021/08/04 01:42:06;;;;;;;3.55;1.98;;;17.30;73.80;;;;;;5045139;28;20415;-68
2021/08/04 01:44:50;;;;;;;6.15;2.13;;;17.30;73.80;;;;;;5031042;28;20065;-68
2021/08/04 01:47:34;;;;;;;7.32;2.08;;;17.40;74.00;;;;;;5045877;28;20056;-68
2021/08/04 01:50:18;;;;;;;4.18;1.80;;;17.30;74.40;;;;;;5045056;28;20033;-68
2021/08/04 01:53:03;;;;;;;3.22;2.03;;;17.30;74.60;;;;;;5044662;28;20032;-68
2021/08/04 01:55:47;;;;;;;3.65;1.98;;;17.40;74.40;;;;;;5043618;28;20093;-70
2021/08/04 01:58:31;;;;;;;4.13;2.20;;;17.40;74.40;;;;;;5045935;28;20351;-68
2021/08/04 02:01:16;;;;;;;4.72;2.00;;;17.50;74.30;;;;;;5045563;28;20268;-68
2021/08/04 02:04:00;;;;;;;3.97;2.20;;;17.40;74.10;;;;;;5045534;28;20048;-68
2021/08/04 02:06:51;;;;;;;4.78;1.90;;;17.40;74.10;;;;;;5045815;28;20260;-68
2021/08/04 02:09:43;;;;;;;4.00;1.90;;;17.40;74.40;;;;;;5031329;28;20047;-68
2021/08/04 02:12:27;;;;;;;3.72;1.80;;;17.30;74.60;;;;;;5030974;28;20386;-69
2021/08/04 02:15:12;;;;;;;3.90;1.95;;;17.30;74.50;;;;;;5044524;28;20351;-68
2021/08/04 02:17:58;;;;;;;6.05;2.08;;;17.30;74.50;;;;;;5044355;28;20048;-68
2021/08/04 02:20:45;;;;;;;3.30;1.88;;;17.30;75.00;;;;;;5044312;28;20032;-68
2021/08/04 02:23:34;;;;;;;5.05;2.40;;;17.30;75.10;;;;;;5043901;28;20437;-68
2021/08/04 02:26:18;;;;;;;3.95;2.13;;;17.30;75.10;;;;;;5030661;28;20036;-68
2021/08/04 02:29:02;;;;;;;5.10;2.17;;;17.30;74.80;;;;;;5043942;28;20029;-68
2021/08/04 02:31:46;;;;;;;4.55;2.20;;;17.30;74.90;;;;;;5029964;28;20048;-68
2021/08/04 02:34:30;;;;;;;3.40;2.30;;;17.30;75.00;;;;;;5044351;28;20248;-68
2021/08/04 02:37:14;;;;;;;4.68;2.10;;;17.40;75.00;;;;;;5044865;28;20028;-69
2021/08/04 02:39:59;;;;;;;3.45;1.85;;;17.50;74.60;;;;;;5044733;28;20379;-68
2021/08/04 02:42:43;;;;;;;3.47;2.05;;;17.40;74.60;;;;;;5043626;28;20048;-68
2021/08/04 02:45:27;;;;;;;5.25;2.30;;;17.50;74.50;;;;;;5043641;28;20040;-68
2021/08/04 02:48:12;;;;;;;2.85;1.90;;;17.50;74.10;;;;;;5044504;28;20030;-68
2021/08/04 02:51:04;;;;;;;4.03;1.92;;;17.40;74.00;;;;;;5044448;28;20051;-68
2021/08/04 02:53:52;;;;;;;;;;;17.30;74.50;;;;;;5044942;28;20087;-68
2021/08/04 02:56:37;;;;;;;7.72;2.28;;;17.30;75.10;;;;;;5048122;28;20096;-68
2021/08/04 02:59:21;;;;;;;4.82;2.08;;;17.30;74.60;;;;;;5044324;28;20040;-68
2021/08/04 03:02:05;;;;;;;5.30;2.17;;;17.30;74.40;;;;;;5044285;28;20033;-68
2021/08/04 03:04:49;;;;;;;4.10;1.80;;;17.40;74.50;;;;;;5044242;28;20032;-68
2021/08/04 03:07:34;;;;;;;4.32;2.10;;;17.30;74.70;;;;;;5044446;28;20351;-68
2021/08/04 03:10:18;;;;;;;3.35;2.00;;;17.20;74.80;;;;;;5044317;28;20052;-68
2021/08/04 03:13:02;;;;;;;6.60;2.10;;;17.20;74.80;;;;;;5044193;28;20037;-68
2021/08/04 03:15:46;;;;;;;3.35;2.08;;;17.20;75.00;;;;;;5044541;28;20044;-68
2021/08/04 03:18:31;;;;;;;6.45;2.47;;;17.30;75.20;;;;;;5044453;28;20023;-68
2021/08/04 03:21:15;;;;;;;4.82;2.22;;;17.20;75.20;;;;;;5043334;28;20033;-68
2021/08/04 03:23:59;;;;;;;3.90;2.15;;;17.30;75.10;;;;;;5043911;28;20364;-68
2021/08/04 03:26:43;;;;;;;4.05;2.35;;;17.30;75.10;;;;;;5044102;28;20099;-68
2021/08/04 03:29:27;;;;;;;7.88;2.63;;;17.30;75.20;;;;;;5043986;28;20031;-68
2021/08/04 03:32:12;;;;;;;6.43;2.40;;;17.40;75.00;;;;;;5043862;28;20093;-68
2021/08/04 03:34:56;;;;;;;4.90;2.20;;;17.40;75.00;;;;;;5043755;28;20075;-68
2021/08/04 03:37:41;;;;;;;3.70;2.30;;;17.40;75.00;;;;;;5043607;28;20029;-68
2021/08/04 03:40:26;;;;;;;3.42;2.10;;;17.50;74.80;;;;;;5044161;28;20040;-68
2021/08/04 03:43:10;;;;;;;3.55;2.10;;;17.50;74.60;;;;;;5043838;28;20120;-68
2021/08/04 03:45:54;;;;;;;7.05;2.60;;;17.40;74.60;;;;;;5044143;28;20068;-68
2021/08/04 03:48:38;;;;;;;5.53;2.22;;;17.30;74.90;;;;;;5044069;28;20431;-68
2021/08/04 03:51:23;;;;;;;5.18;2.60;;;17.20;75.00;;;;;;5043517;28;20227;-68
2021/08/04 03:54:07;;;;;;;4.15;2.60;;;17.30;75.00;;;;;;5043756;28;20044;-70
2021/08/04 03:56:51;;;;;;;4.28;2.10;;;17.20;75.10;;;;;;5043755;28;20076;-70
2021/08/04 03:59:35;;;;;;;3.78;2.50;;;17.20;75.00;;;;;;5043673;28;20060;-70
2021/08/04 04:02:20;;;;;;;7.28;2.25;;;17.20;75.20;;;;;;5043480;28;20047;-70
2021/08/04 04:05:07;;;;;;;4.40;2.58;;;17.20;75.40;;;;;;5043493;28;20075;-70
2021/08/04 04:07:51;;;;;;;5.22;2.10;;;17.00;75.50;;;;;;5043440;28;20060;-70
2021/08/04 04:10:35;;;;;;;6.60;2.50;;;17.00;75.70;;;;;;5043333;28;20124;-68
2021/08/04 04:13:20;;;;;;;5.20;2.67;;;17.00;75.80;;;;;;5043759;28;20391;-70
2021/08/04 04:16:04;;;;;;;6.15;2.47;;;17.10;75.70;;;;;;5043472;28;20113;-70
2021/08/04 04:18:49;;;;;;;7.10;2.30;;;17.10;75.20;;;;;;5045274;28;20048;-70
2021/08/04 04:21:33;;;;;;;6.50;2.50;;;17.00;75.80;;;;;;5047656;28;20036;-70
2021/08/04 04:24:17;;;;;;;5.65;2.33;;;17.00;76.10;;;;;;5047094;28;20057;-70
2021/08/04 04:27:01;;;;;;;15.05;3.95;;;16.90;76.30;;;;;;5047447;28;20072;-70
2021/08/04 04:29:46;;;;;;;7.63;2.40;;;17.10;75.80;;;;;;5047161;28;20032;-70
2021/08/04 04:32:30;;;;;;;3.47;2.25;;;17.10;75.80;;;;;;5047176;28;20052;-70
2021/08/04 04:35:14;;;;;;;7.68;2.35;;;17.10;75.80;;;;;;5047075;28;20060;-70
2021/08/04 04:37:59;;;;;;;4.00;2.22;;;17.00;75.90;;;;;;5047006;28;20081;-69
2021/08/04 04:40:43;;;;;;;5.68;2.50;;;17.10;75.70;;;;;;5046685;28;20048;-69
2021/08/04 04:43:27;;;;;;;5.63;2.33;;;16.80;76.40;;;;;;5047243;28;20208;-70
2021/08/04 04:46:11;;;;;;;7.55;2.10;;;16.80;76.30;;;;;;5046978;28;20383;-70
2021/08/04 04:48:56;;;;;;;5.13;2.40;;;16.70;76.80;;;;;;5047337;28;20253;-70
2021/08/04 04:51:40;;;;;;;4.53;2.38;;;16.90;76.20;;;;;;5047235;28;20098;-70
2021/08/04 04:54:24;;;;;;;4.55;2.45;;;16.70;76.40;;;;;;5046589;28;20057;-70
2021/08/04 04:57:09;;;;;;;6.22;2.15;;;16.60;77.10;;;;;;5046625;28;20037;-70
2021/08/04 04:59:53;;;;;;;2.80;2.00;;;16.70;76.90;;;;;;5046908;28;20056;-70
2021/08/04 05:02:40;;;;;;;2.90;2.00;;;16.70;76.70;;;;;;5046532;28;20059;-70
2021/08/04 05:05:25;;;;;;;4.80;2.25;;;16.60;77.20;;;;;;5046435;28;20092;-70
2021/08/04 05:08:09;;;;;;;5.70;2.30;;;16.80;76.70;;;;;;5046344;28;20025;-70
2021/08/04 05:10:53;;;;;;;2.80;2.08;;;16.80;76.50;;;;;;5046311;28;20048;-69
2021/08/04 05:13:38;;;;;;;4.07;1.90;;;16.80;76.70;;;;;;5046203;28;20037;-70
2021/08/04 05:16:22;;;;;;;3.38;1.98;;;16.80;76.80;;;;;;5046507;28;20071;-70
2021/08/04 05:19:06;;;;;;;3.28;1.80;;;16.80;76.30;;;;;;5047160;28;20056;-70
2021/08/04 05:21:51;;;;;;;7.28;2.08;;;16.80;76.80;;;;;;5046693;28;20041;-70
2021/08/04 05:24:35;;;;;;;3.13;1.60;;;16.80;76.70;;;;;;5045990;28;20087;-70
2021/08/04 05:27:19;;;;;;;5.97;2.05;;;17.00;76.40;;;;;;5046375;28;20075;-70
2021/08/04 05:30:04;;;;;;;3.95;2.00;;;17.00;76.40;;;;;;5044944;28;20243;-70
2021/08/04 05:32:48;;;;;;;3.45;1.70;;;17.10;76.10;;;;;;5045868;28;20092;-70
2021/08/04 05:35:33;;;;;;;4.03;2.00;;;17.10;76.10;;;;;;5043743;28;20323;-70
2021/08/04 05:38:17;;;;;;;3.75;1.90;;;16.90;76.40;;;;;;5045896;28;20048;-70
2021/08/04 05:41:01;;;;;;;3.50;1.80;;;16.90;76.30;;;;;;5045788;28;20233;-69
2021/08/04 05:43:46;;;;;;;3.95;1.90;;;17.00;76.40;;;;;;5045845;28;20358;-70
2021/08/04 05:46:30;;;;;;;5.45;2.13;;;17.10;75.80;;;;;;5046058;28;20252;-70
2021/08/04 05:49:14;;;;;;;3.90;2.33;;;17.10;75.90;;;;;;5045753;28;20036;-70
2021/08/04 05:51:58;;;;;;;4.38;1.60;;;17.20;76.20;;;;;;5045598;28;20053;-70
2021/08/04 05:54:43;;;;;;;3.03;1.70;;;17.10;76.70;;;;;;5045974;28;20045;-70
2021/08/04 05:57:27;;;;;;;3.92;1.50;;;17.20;76.40;;;;;;5045498;28;20224;-70
2021/08/04 06:00:12;;;;;;;5.20;1.83;;;17.30;75.90;;;;;;5045417;28;20364;-70
2021/08/04 06:02:56;;;;;;;3.03;1.73;;;17.30;75.90;;;;;;5044327;28;20036;-70
2021/08/04 06:05:41;;;;;;;3.90;1.60;;;17.30;75.50;;;;;;5045567;28;20293;-70
2021/08/04 06:08:25;;;;;;;3.92;1.60;;;17.30;76.00;;;;;;5045007;28;20378;-69
2021/08/04 06:11:11;;;;;;;3.58;1.50;;;17.40;76.20;;;;;;5045625;28;20071;-70
2021/08/04 06:13:55;;;;;;;2.13;1.40;;;17.30;76.50;;;;;;5045131;28;20052;-70
2021/08/04 06:16:39;;;;;;;4.18;1.70;;;17.10;76.80;;;;;;5045116;28;20071;-69
2021/08/04 06:19:23;;;;;;;5.22;1.70;;;17.40;75.90;;;;;;5044556;28;20121;-70
2021/08/04 06:22:07;;;;;;;4.55;1.75;;;17.40;75.30;;;;;;5045209;28;20094;-70
2021/08/04 06:24:52;;;;;;;6.28;1.80;;;17.50;75.20;;;;;;5044824;28;20244;-70
2021/08/04 06:27:36;;;;;;;4.53;1.50;;;17.50;75.50;;;;;;5045216;28;20063;-70
2021/08/04 06:30:21;;;;;;;3.10;1.70;;;17.40;75.80;;;;;;5045245;28;20072;-70
2021/08/04 06:33:05;;;;;;;3.03;1.40;;;17.50;75.30;;;;;;5044940;28;20037;-70
2021/08/04 06:35:49;;;;;;;3.80;1.40;;;17.60;75.10;;;;;;5044709;28;20064;-70
2021/08/04 06:38:33;;;;;;;3.22;1.77;;;17.60;75.00;;;;;;5044725;28;20093;-70
2021/08/04 06:41:18;;;;;;;6.57;1.50;;;17.60;74.80;;;;;;5044146;28;20059;-70
2021/08/04 06:44:03;;;;;;;5.68;1.60;;;17.60;74.50;;;;;;5044592;28;20036;-70
2021/08/04 06:46:47;;;;;;;2.50;1.42;;;17.70;74.70;;;;;;5044492;28;20063;-70
2021/08/04 06:49:31;;;;;;;5.65;1.60;;;17.70;75.00;;;;;;5044869;28;20060;-70
2021/08/04 06:52:15;;;;;;;2.83;1.50;;;17.70;75.60;;;;;;5044057;28;20213;-70
2021/08/04 06:54:59;;;;;;;3.88;1.80;;;17.70;75.10;;;;;;5044356;28;20024;-70
2021/08/04 06:57:43;;;;;;;4.93;1.50;;;17.80;75.00;;;;;;5044833;28;20052;-70
2021/08/04 07:00:28;;;;;;;3.78;1.60;;;17.80;75.50;;;;;;5044290;28;20027;-70
2021/08/04 07:03:12;;;;;;;3.75;1.73;;;17.90;75.50;;;;;;5043304;28;20044;-70
2021/08/04 07:05:57;;;;;;;3.33;1.48;;;17.90;75.60;;;;;;5044167;28;20071;-70
2021/08/04 07:08:41;;;;;;;2.20;1.38;;;17.90;75.30;;;;;;5044101;28;20067;-70
2021/08/04 07:11:25;;;;;;;3.70;1.50;;;18.10;75.40;;;;;;5044067;28;20217;-70
2021/08/04 07:14:11;;;;;;;5.88;1.38;;;18.10;75.30;;;;;;5043029;28;20032;-70
2021/08/04 07:16:55;;;;;;;5.60;1.45;;;18.10;75.10;;;;;;5044052;28;20032;-70
2021/08/04 07:19:40;;;;;;;2.97;1.40;;;18.20;73.90;;;;;;5043908;28;20343;-69
2021/08/04 07:22:24;;;;;;;5.43;1.50;;;18.30;73.50;;;;;;5044354;28;20025;-70
2021/08/04 07:25:09;;;;;;;4.18;1.13;;;18.30;73.90;;;;;;5043960;28;20064;-70
2021/08/04 07:27:53;;;;;;;5.32;1.50;;;18.30;73.10;;;;;;5043426;28;20056;-70
2021/08/04 07:30:37;;;;;;;2.65;1.38;;;18.30;72.50;;;;;;5044321;28;20076;-70
2021/08/04 07:33:21;;;;;;;4.30;1.00;;;18.30;73.30;;;;;;5043144;28;20060;-70
2021/08/04 07:36:05;;;;;;;2.08;1.20;;;18.40;73.40;;;;;;5043711;28;20359;-70
2021/08/04 07:38:49;;;;;;;2.03;1.10;;;18.40;73.80;;;;;;5043710;28;20056;-70
2021/08/04 07:41:33;;;;;;;5.55;1.30;;;18.50;73.60;;;;;;5043691;28;20217;-70
2021/08/04 07:44:18;;;;;;;1.77;1.00;;;18.50;73.20;;;;;;5043758;28;20148;-70
2021/08/04 07:47:02;;;;;;;2.13;1.00;;;18.50;72.60;;;;;;5043667;28;20060;-70
2021/08/04 07:49:46;;;;;;;3.03;1.00;;;18.60;72.70;;;;;;5043562;28;20084;-70
2021/08/04 07:52:31;;;;;;;2.30;1.30;;;18.60;73.50;;;;;;5043538;28;20105;-70
2021/08/04 07:55:16;;;;;;;4.10;1.10;;;18.70;73.70;;;;;;5043589;28;20037;-70
2021/08/04 07:58:01;;;;;;;2.20;1.20;;;18.70;73.20;;;;;;5043700;28;20032;-70
2021/08/04 08:00:45;;;;;;;2.58;1.23;;;18.70;72.30;;;;;;5043063;28;20374;-70
2021/08/04 08:03:29;;;;;;;2.45;1.20;;;18.70;72.80;;;;;;5043829;28;20358;-70
2021/08/04 08:06:13;;;;;;;2.08;1.00;;;18.70;73.00;;;;;;5043878;28;20040;-70
2021/08/04 08:08:57;;;;;;;1.60;0.80;;;18.80;73.20;;;;;;5043679;28;20289;-70
2021/08/04 08:11:42;;;;;;;1.60;0.90;;;18.80;72.90;;;;;;5043597;28;20056;-70
2021/08/04 08:14:27;;;;;;;2.15;1.05;;;18.80;72.00;;;;;;5043501;28;20037;-70
2021/08/04 08:17:11;;;;;;;1.48;0.90;;;18.90;72.30;;;;;;5043490;28;20035;-70
2021/08/04 08:19:56;;;;;;;1.60;0.85;;;18.90;71.70;;;;;;5043327;28;20028;-70
2021/08/04 08:22:40;;;;;;;2.05;1.00;;;18.80;70.10;;;;;;5043206;28;20265;-69
2021/08/04 08:25:24;;;;;;;1.65;0.90;;;18.90;69.80;;;;;;5043688;28;20103;-70
2021/08/04 08:28:08;;;;;;;1.40;0.90;;;18.90;70.60;;;;;;5043321;28;20032;-70
2021/08/04 08:30:53;;;;;;;2.65;0.90;;;19.00;70.90;;;;;;5043712;28;20033;-70
2021/08/04 08:33:37;;;;;;;1.30;0.88;;;19.00;69.30;;;;;;5043596;28;20033;-70
2021/08/04 08:36:21;;;;;;;1.58;1.00;;;18.80;70.50;;;;;;5043001;28;20057;-70
2021/08/04 08:39:07;;;;;;;1.95;0.90;;;19.00;70.80;;;;;;5043085;28;20032;-70
2021/08/04 08:41:51;;;;;;;1.67;1.00;;;19.00;69.90;;;;;;5043138;28;20044;-70
2021/08/04 08:44:36;;;;;;;1.83;0.90;;;19.10;70.20;;;;;;5043070;28;20339;-70
2021/08/04 08:47:19;;;;;;;1.42;0.75;;;19.10;69.40;;;;;;5042977;28;20036;-70
2021/08/04 08:50:04;;;;;;;1.50;0.90;;;19.10;68.70;;;;;;5028232;28;20040;-70
2021/08/04 08:52:49;;;;;;;1.92;0.82;;;19.10;68.30;;;;;;5042883;28;20148;-70
2021/08/04 08:55:33;;;;;;;0.95;0.57;;;19.10;69.60;;;;;;5043487;28;20213;-70
2021/08/04 08:58:17;;;;;;;1.13;0.80;;;19.10;69.20;;;;;;5043141;28;20255;-70
2021/08/04 09:01:01;;;;;;;1.88;0.80;;;19.10;68.90;;;;;;5043081;28;20036;-70
2021/08/04 09:03:46;;;;;;;1.38;0.90;;;19.10;69.20;;;;;;5043425;28;20256;-70
2021/08/04 09:06:46;;;;;;;1.40;0.70;;;19.10;69.20;;;;;;5046413;28;20367;-70
2021/08/04 09:09:32;;;;;;;1.33;0.83;;;19.10;67.60;;;;;;5046469;28;20071;-70
2021/08/04 09:12:16;;;;;;;1.20;0.73;;;19.10;68.30;;;;;;5046640;28;20279;-71
2021/08/04 09:15:00;;;;;;;1.98;1.13;;;19.20;68.00;;;;;;5046635;28;20035;-70
2021/08/04 09:17:59;;;;;;;1.55;0.80;;;19.10;68.40;;;;;;5045389;28;20064;-70
2021/08/04 09:20:54;;;;;;;3.03;1.00;;;19.20;68.10;;;;;;5046440;28;20074;-70
2021/08/04 09:23:49;;;;;;;2.33;0.90;;;19.20;66.90;;;;;;5046008;28;20076;-70
2021/08/04 09:26:33;;;;;;;1.15;0.80;;;19.20;67.80;;;;;;5046219;28;20033;-70
2021/08/04 09:29:17;;;;;;;1.50;0.93;;;19.20;67.80;;;;;;5031295;28;20032;-70
2021/08/04 09:32:03;;;;;;;2.58;0.90;;;19.20;66.80;;;;;;5046014;28;20059;-70
2021/08/04 09:34:47;;;;;;;1.60;0.90;;;19.20;66.90;;;;;;5045889;28;20278;-70
2021/08/04 09:37:31;;;;;;;1.33;0.70;;;19.30;67.60;;;;;;5046239;28;20391;-70
2021/08/04 09:40:21;;;;;;;1.10;0.75;;;19.30;67.20;;;;;;5045977;28;20036;-70
2021/08/04 09:43:05;;;;;;;1.92;1.00;;;19.40;68.00;;;;;;5045939;28;20108;-70
2021/08/04 09:45:51;;;;;;;1.95;0.90;;;19.40;67.80;;;;;;5046157;28;20075;-70
2021/08/04 09:48:35;;;;;;;1.85;1.05;;;19.40;67.60;;;;;;5046092;28;20348;-70
2021/08/04 09:51:21;;;;;;;2.38;1.10;;;19.40;66.90;;;;;;5046038;28;20071;-70
2021/08/04 09:54:07;;;;;;;2.70;0.93;;;19.40;66.70;;;;;;5045808;28;20251;-70
2021/08/04 09:56:52;;;;;;;1.58;0.80;;;19.50;67.10;;;;;;5045450;28;20040;-70
2021/08/04 09:59:37;;;;;;;1.38;0.90;;;19.50;66.60;;;;;;5045479;28;20032;-70
2021/08/04 10:02:29;;;;;;;1.77;1.00;;;19.50;66.40;;;;;;5045426;28;20079;-70
2021/08/04 10:05:24;;;;;;;1.30;0.70;;;19.50;66.10;;;;;;5044482;28;20063;-70
2021/08/04 10:08:11;;;;;;;2.60;0.90;;;19.40;65.90;;;;;;5045514;28;20072;-70
2021/08/04 10:10:56;;;;;;;2.42;0.98;;;19.50;67.40;;;;;;5045245;28;20032;-70
2021/08/04 10:13:40;;;;;;;4.78;1.00;;;19.40;66.30;;;;;;5045089;28;20072;-69
2021/08/04 10:16:33;;;;;;;1.30;0.70;;;19.30;65.40;;;;;;5029965;28;20028;-70
2021/08/04 10:19:17;;;;;;;1.85;0.70;;;19.40;64.70;;;;;;5045303;28;20036;-70
2021/08/04 10:22:02;;;;;;;1.20;0.73;;;19.50;64.50;;;;;;5044222;28;20040;-70
2021/08/04 10:24:48;;;;;;;1.80;0.93;;;19.60;65.20;;;;;;5044883;28;20072;-70
2021/08/04 10:27:34;;;;;;;4.30;1.10;;;19.60;64.70;;;;;;5043900;28;20028;-70
2021/08/04 10:30:18;;;;;;;1.50;0.70;;;19.60;64.70;;;;;;5044931;28;20033;-70
2021/08/04 10:33:06;;;;;;;1.65;0.98;;;19.50;63.70;;;;;;5044985;28;20074;-70
2021/08/04 10:35:57;;;;;;;4.38;1.02;;;19.40;63.50;;;;;;5044802;28;20265;-70
2021/08/04 10:38:57;;;;;;;1.67;0.82;;;19.50;63.50;;;;;;5043954;28;20064;-70
2021/08/04 10:41:59;;;;;;;1.55;0.80;;;19.40;63.40;;;;;;5043876;28;20032;-70
2021/08/04 10:44:44;;;;;;;1.90;1.00;;;19.50;65.60;;;;;;5044776;28;20032;-70
2021/08/04 10:47:29;;;;;;;1.70;0.90;;;19.50;64.20;;;;;;5043856;28;20093;-70
2021/08/04 10:50:13;;;;;;;1.70;0.80;;;19.40;64.70;;;;;;5043681;28;20028;-70
2021/08/04 10:52:57;;;;;;;5.25;1.00;;;19.40;64.70;;;;;;5044447;28;20036;-70
2021/08/04 10:55:55;;;;;;;2.50;0.90;;;19.40;64.80;;;;;;5044362;28;20038;-70
2021/08/04 10:58:38;;;;;;;2.40;1.10;;;19.40;65.00;;;;;;5043781;28;20088;-70
2021/08/04 11:01:24;;;;;;;2.03;1.00;;;19.30;65.30;;;;;;5043812;28;20128;-70
2021/08/04 11:04:11;;;;;;;3.05;1.00;;;19.30;65.20;;;;;;5044414;28;20112;-70
2021/08/04 11:07:11;;;;;;;1.90;0.90;;;19.40;65.40;;;;;;5044756;28;20216;-70
2021/08/04 11:09:57;;;;;;;3.95;1.20;;;19.50;66.00;;;;;;5044731;28;20397;-70
2021/08/04 11:12:42;;;;;;;1.77;1.00;;;19.30;65.80;;;;;;5044764;28;20036;-70
2021/08/04 11:15:29;;;;;;;1.42;0.70;;;19.30;65.50;;;;;;5044418;28;20080;-70
2021/08/04 11:18:13;;;;;;;1.63;1.00;;;19.40;65.20;;;;;;5044272;28;20041;-70
2021/08/04 11:21:11;;;;;;;1.67;0.90;;;19.40;65.70;;;;;;5043946;28;20128;-70
2021/08/04 11:23:56;;;;;;;1.75;1.00;;;19.30;64.30;;;;;;5043610;28;20052;-70
2021/08/04 11:26:40;;;;;;;2.38;0.90;;;19.30;65.30;;;;;;5043810;28;20032;-70
2021/08/04 11:29:43;;;;;;;1.92;0.93;;;19.30;65.10;;;;;;5042702;28;20253;-70
2021/08/04 11:32:28;;;;;;;5.32;1.17;;;19.30;64.60;;;;;;5043690;28;20032;-70
2021/08/04 11:35:16;;;;;;;1.75;1.00;;;19.40;65.50;;;;;;5043585;28;20056;-70
2021/08/04 11:38:00;;;;;;;1.48;0.80;;;19.50;65.70;;;;;;5043616;28;20087;-70
2021/08/04 11:40:45;;;;;;;1.65;1.00;;;19.60;65.50;;;;;;5043620;28;20261;-70
2021/08/04 11:43:29;;;;;;;3.38;1.00;;;19.50;65.50;;;;;;5044110;28;20101;-70
2021/08/04 11:46:34;;;;;;;1.77;0.90;;;19.40;66.10;;;;;;5043695;28;20052;-70
2021/08/04 11:49:25;;;;;;;1.10;0.80;;;19.50;66.30;;;;;;5043615;28;20079;-70
2021/08/04 11:52:16;;;;;;;1.38;0.90;;;19.50;66.60;;;;;;5043743;28;20352;-70
2021/08/04 11:55:05;;;;;;;1.98;0.90;;;19.50;67.10;;;;;;5043654;28;20083;-70
2021/08/04 11:57:49;;;;;;;1.25;0.80;;;19.60;66.90;;;;;;5044066;28;20228;-70
2021/08/04 12:00:33;;;;;;;1.38;0.80;;;19.70;66.40;;;;;;5028619;28;20355;-70
2021/08/04 12:03:18;;;;;;;2.75;1.20;;;19.80;66.80;;;;;;5043455;28;20056;-70
2021/08/04 12:06:18;;;;;;;1.90;0.90;;;19.80;66.20;;;;;;5043375;28;20037;-70
2021/08/04 12:09:21;;;;;;;4.30;1.00;;;19.80;65.30;;;;;;5043368;28;20041;-70
2021/08/04 12:12:11;;;;;;;1.67;0.93;;;19.80;64.80;;;;;;5043757;28;20036;-70
2021/08/04 12:14:55;;;;;;;3.25;1.08;;;19.70;65.60;;;;;;5043289;28;20041;-70
2021/08/04 12:17:39;;;;;;;2.70;0.90;;;19.70;66.00;;;;;;5043289;28;20120;-70
2021/08/04 12:20:25;;;;;;;1.55;0.88;;;19.80;65.80;;;;;;5043219;28;20036;-70
2021/08/04 12:23:10;;;;;;;1.75;1.08;;;19.80;65.60;;;;;;5043003;28;20037;-70
2021/08/04 12:26:01;;;;;;;1.52;0.85;;;19.90;65.30;;;;;;5043461;28;20114;-70
2021/08/04 12:28:45;;;;;;;3.58;0.93;;;19.80;65.10;;;;;;5043203;28;20036;-70
2021/08/04 12:31:30;;;;;;;1.55;0.80;;;19.80;65.10;;;;;;5043683;28;20347;-70
2021/08/04 12:34:15;;;;;;;2.38;1.10;;;19.80;64.30;;;;;;5043237;28;20083;-70
2021/08/04 12:36:59;;;;;;;1.52;0.80;;;19.90;64.10;;;;;;5043136;28;20359;-70
2021/08/04 12:39:44;;;;;;;1.98;0.90;;;19.80;64.60;;;;;;5043937;28;20379;-70
2021/08/04 12:42:28;;;;;;;2.75;1.10;;;19.80;65.00;;;;;;5046913;28;20073;-70
2021/08/04 12:45:24;;;;;;;3.78;1.13;;;19.80;64.60;;;;;;5047219;28;20028;-70
2021/08/04 12:48:08;;;;;;;2.63;1.00;;;19.70;65.10;;;;;;5045848;28;20033;-70
2021/08/04 12:50:57;;;;;;;2.03;0.90;;;19.80;65.40;;;;;;5046702;28;20347;-70
2021/08/04 12:53:41;;;;;;;2.72;1.13;;;19.80;66.40;;;;;;5046603;28;20049;-70
2021/08/04 12:56:32;;;;;;;2.78;1.00;;;19.90;66.00;;;;;;5046672;28;20036;-70
2021/08/04 12:59:19;;;;;;;3.95;1.00;;;19.80;67.00;;;;;;5046623;28;20363;-70
2021/08/04 13:02:10;;;;;;;2.85;1.00;;;19.80;67.10;;;;;;5046555;28;20032;-70
2021/08/04 13:05:05;;;;;;;3.72;0.93;;;19.90;67.20;;;;;;5045522;28;20043;-71
2021/08/04 13:07:49;;;;;;;4.15;0.95;;;19.90;68.10;;;;;;5046334;28;20363;-69
2021/08/04 13:10:43;;;;;;;1.98;0.95;;;20.00;67.60;;;;;;5046833;28;20028;-70
2021/08/04 13:13:28;;;;;;;1.70;1.00;;;20.00;67.80;;;;;;5046334;28;20070;-70
2021/08/04 13:16:30;;;;;;;2.42;1.05;;;19.80;68.00;;;;;;5046460;28;20037;-70
2021/08/04 13:19:22;;;;;;;3.90;0.82;;;19.80;67.70;;;;;;5045481;28;20036;-70
2021/08/04 13:22:07;;;;;;;2.95;1.17;;;19.80;67.70;;;;;;5046452;28;20079;-70
2021/08/04 13:24:51;;;;;;;2.17;1.20;;;19.70;68.40;;;;;;5046040;28;20076;-70
2021/08/04 13:27:36;;;;;;;2.05;1.10;;;19.70;68.60;;;;;;5046486;28;20117;-70
2021/08/04 13:30:32;;;;;;;3.80;1.45;;;19.80;69.10;;;;;;5046009;28;20028;-70
2021/08/04 13:33:21;;;;;;;2.15;1.05;;;19.90;69.70;;;;;;5045819;28;20044;-70
2021/08/04 13:36:05;;;;;;;1.98;1.20;;;19.80;69.40;;;;;;5046165;28;20079;-70
2021/08/04 13:38:50;;;;;;;3.00;1.02;;;19.70;68.70;;;;;;5046130;28;20367;-70
2021/08/04 13:41:34;;;;;;;3.15;1.15;;;19.70;68.90;;;;;;5045951;28;20071;-70
2021/08/04 13:44:18;;;;;;;3.17;1.10;;;19.70;69.90;;;;;;5045721;28;20064;-70
2021/08/04 13:47:03;;;;;;;3.33;1.30;;;19.70;70.00;;;;;;5045789;28;20196;-70
2021/08/04 13:49:47;;;;;;;1.88;1.00;;;19.70;70.80;;;;;;5045632;28;20028;-69
2021/08/04 13:52:32;;;;;;;3.05;1.25;;;19.80;71.00;;;;;;5044892;28;20060;-70
2021/08/04 13:55:17;;;;;;;5.53;1.20;;;19.80;71.20;;;;;;5045695;28;20075;-70
2021/08/04 13:58:02;;;;;;;3.58;1.23;;;19.80;70.90;;;;;;5045669;28;20154;-70
2021/08/04 14:00:46;;;;;;;3.33;1.20;;;19.80;71.50;;;;;;5017261;28;20032;-70
2021/08/04 14:03:30;;;;;;;2.38;1.20;;;19.80;71.70;;;;;;5045393;28;20101;-70
2021/08/04 14:06:14;;;;;;;3.50;1.10;;;19.80;71.10;;;;;;5045366;28;20056;-70
2021/08/04 14:08:58;;;;;;;2.03;0.80;;;19.80;71.30;;;;;;5045320;28;20256;-70
2021/08/04 14:11:43;;;;;;;2.15;1.00;;;19.80;70.70;;;;;;5045282;28;20048;-70
2021/08/04 14:14:27;;;;;;;3.22;1.17;;;19.80;71.10;;;;;;5045147;28;20040;-70
2021/08/04 14:17:11;;;;;;;2.80;1.27;;;19.80;71.30;;;;;;5044154;28;20313;-70
2021/08/04 14:19:55;;;;;;;2.65;1.38;;;19.80;71.20;;;;;;5044123;28;20044;-70
2021/08/04 14:22:40;;;;;;;2.17;1.27;;;19.70;71.00;;;;;;5044887;28;20053;-68
2021/08/04 14:25:24;;;;;;;2.92;1.10;;;19.70;71.00;;;;;;5045410;28;20051;-70